sensor_id;sensor_type;location;lat;lon;timestamp;pressure;altitude;pressure_sealevel;temperature;humidity
8416;BME280;4245;42.120;24.732;2023-04-23T00:01:36;99315.41;;;14.21;100.00
8416;BME280;4245;42.120;24.732;2023-04-23T00:04:07;99312.28;;;14.16;100.00
8416;BME280;4245;42.120;24.732;2023-04-23T00:06:34;99319.28;;;14.28;100.00
8416;BME280;4245;42.120;24.732;2023-04-23T00:09:04;99325.13;;;14.22;100.00
8416;BME280;4245;42.120;24.732;2023-04-23T00:11:32;99315.91;;;13.94;100.00
8416;BME280;4245;42.120;24.732;2023-04-23T00:14:00;99317.78;;;13.71;100.00
8416;BME280;4245;42.120;24.732;2023-04-23T00:16:27;99316.75;;;13.63;100.00
8416;BME280;4245;42.120;24.732;2023-04-23T00:18:54;99321.97;;;13.64;100.00
8416;BME280;4245;42.120;24.732;2023-04-23T00:21:21;99319.59;;;13.39;100.00
8416;BME280;4245;42.120;24.732;2023-04-23T00:23:48;99314.72;;;13.44;100.00
8416;BME280;4245;42.120;24.732;2023-04-23T00:26:16;99318.09;;;13.46;100.00
8416;BME280;4245;42.120;24.732;2023-04-23T00:28:43;99318.09;;;13.46;100.00
8416;BME280;4245;42.120;24.732;2023-04-23T00:31:10;99321.03;;;13.43;100.00
8416;BME280;4245;42.120;24.732;2023-04-23T00:33:37;99318.38;;;13.43;100.00
8416;BME280;4245;42.120;24.732;2023-04-23T00:36:05;99325.63;;;13.52;100.00
8416;BME280;4245;42.120;24.732;2023-04-23T00:38:32;99330.84;;;13.54;100.00
8416;BME280;4245;42.120;24.732;2023-04-23T00:40:59;99329.13;;;13.53;100.00
8416;BME280;4245;42.120;24.732;2023-04-23T00:43:27;99330.84;;;13.42;100.00
8416;BME280;4245;42.120;24.732;2023-04-23T00:45:54;99337.66;;;13.35;100.00
8416;BME280;4245;42.120;24.732;2023-04-23T00:48:21;99336.19;;;13.42;100.00
8416;BME280;4245;42.120;24.732;2023-04-23T00:50:48;99336.19;;;13.42;100.00
8416;BME280;4245;42.120;24.732;2023-04-23T00:53:14;99331.22;;;13.38;100.00
8416;BME280;4245;42.120;24.732;2023-04-23T00:55:41;99331.84;;;13.19;100.00
8416;BME280;4245;42.120;24.732;2023-04-23T00:58:08;99341.56;;;13.20;100.00
8416;BME280;4245;42.120;24.732;2023-04-23T01:00:42;99341.53;;;13.09;100.00
8416;BME280;4245;42.120;24.732;2023-04-23T01:03:10;99346.50;;;13.02;100.00
8416;BME280;4245;42.120;24.732;2023-04-23T01:05:37;99343.81;;;13.02;100.00
8416;BME280;4245;42.120;24.732;2023-04-23T01:08:05;99345.41;;;12.94;100.00
8416;BME280;4245;42.120;24.732;2023-04-23T01:10:32;99346.75;;;12.99;100.00
8416;BME280;4245;42.120;24.732;2023-04-23T01:12:59;99341.88;;;12.93;100.00
8416;BME280;4245;42.120;24.732;2023-04-23T01:15:26;99345.31;;;13.06;100.00
8416;BME280;4245;42.120;24.732;2023-04-23T01:17:54;99342.13;;;12.90;100.00
8416;BME280;4245;42.120;24.732;2023-04-23T01:20:22;99345.53;;;12.92;100.00
8416;BME280;4245;42.120;24.732;2023-04-23T01:22:51;99344.31;;;12.85;100.00
8416;BME280;4245;42.120;24.732;2023-04-23T01:25:18;99343.81;;;12.80;100.00
8416;BME280;4245;42.120;24.732;2023-04-23T01:27:44;99343.34;;;12.86;100.00
8416;BME280;4245;42.120;24.732;2023-04-23T01:30:12;99340.78;;;12.74;100.00
8416;BME280;4245;42.120;24.732;2023-04-23T01:32:39;99348.41;;;12.67;100.00
8416;BME280;4245;42.120;24.732;2023-04-23T01:35:06;99336.56;;;12.71;100.00
8416;BME280;4245;42.120;24.732;2023-04-23T01:37:34;99346.59;;;12.68;100.00
8416;BME280;4245;42.120;24.732;2023-04-23T01:40:05;99345.97;;;12.64;100.00
8416;BME280;4245;42.120;24.732;2023-04-23T01:42:32;99339.69;;;12.65;100.00
8416;BME280;4245;42.120;24.732;2023-04-23T01:45:00;99340.28;;;12.57;100.00
8416;BME280;4245;42.120;24.732;2023-04-23T01:47:28;99349.09;;;12.47;100.00
8416;BME280;4245;42.120;24.732;2023-04-23T01:49:54;99351.03;;;12.45;100.00
8416;BME280;4245;42.120;24.732;2023-04-23T01:52:21;99351.88;;;12.45;100.00
8416;BME280;4245;42.120;24.732;2023-04-23T01:54:48;99354.53;;;12.34;100.00
8416;BME280;4245;42.120;24.732;2023-04-23T01:57:16;99345.19;;;12.29;100.00
8416;BME280;4245;42.120;24.732;2023-04-23T01:59:48;99352.69;;;12.35;100.00
8416;BME280;4245;42.120;24.732;2023-04-23T02:02:15;99355.09;;;12.27;100.00
8416;BME280;4245;42.120;24.732;2023-04-23T02:04:43;99350.97;;;12.23;100.00
8416;BME280;4245;42.120;24.732;2023-04-23T02:07:10;99347.59;;;12.32;100.00
8416;BME280;4245;42.120;24.732;2023-04-23T02:09:37;99339.97;;;12.27;100.00
8416;BME280;4245;42.120;24.732;2023-04-23T02:12:04;99349.06;;;12.36;100.00
8416;BME280;4245;42.120;24.732;2023-04-23T02:14:32;99348.72;;;12.40;100.00
8416;BME280;4245;42.120;24.732;2023-04-23T02:16:59;99352.22;;;12.41;100.00
8416;BME280;4245;42.120;24.732;2023-04-23T02:19:27;99348.47;;;12.32;100.00
8416;BME280;4245;42.120;24.732;2023-04-23T02:21:56;99353.69;;;12.45;100.00
8416;BME280;4245;42.120;24.732;2023-04-23T02:24:22;99346.91;;;12.41;100.00
8416;BME280;4245;42.120;24.732;2023-04-23T02:26:49;99344.72;;;12.46;100.00
8416;BME280;4245;42.120;24.732;2023-04-23T02:29:16;99351.50;;;12.39;100.00
8416;BME280;4245;42.120;24.732;2023-04-23T02:31:44;99354.19;;;12.50;100.00
8416;BME280;4245;42.120;24.732;2023-04-23T02:34:11;99361.31;;;12.49;100.00
8416;BME280;4245;42.120;24.732;2023-04-23T02:36:38;99352.84;;;12.44;100.00
8416;BME280;4245;42.120;24.732;2023-04-23T02:39:04;99359.50;;;12.50;100.00
8416;BME280;4245;42.120;24.732;2023-04-23T02:41:31;99356.84;;;12.50;100.00
8416;BME280;4245;42.120;24.732;2023-04-23T02:43:58;99360.97;;;12.43;100.00
8416;BME280;4245;42.120;24.732;2023-04-23T02:46:25;99364.34;;;12.45;100.00
8416;BME280;4245;42.120;24.732;2023-04-23T02:48:53;99359.50;;;12.39;100.00
8416;BME280;4245;42.120;24.732;2023-04-23T02:51:20;99361.78;;;12.32;100.00
8416;BME280;4245;42.120;24.732;2023-04-23T02:53:47;99360.94;;;12.32;100.00
8416;BME280;4245;42.120;24.732;2023-04-23T02:56:14;99353.91;;;12.31;100.00
8416;BME280;4245;42.120;24.732;2023-04-23T02:58:41;99361.44;;;12.37;100.00
8416;BME280;4245;42.120;24.732;2023-04-23T03:01:07;99355.72;;;12.30;100.00
8416;BME280;4245;42.120;24.732;2023-04-23T03:03:34;99357.88;;;12.25;100.00
8416;BME280;4245;42.120;24.732;2023-04-23T03:06:03;99356.22;;;12.35;100.00
8416;BME280;4245;42.120;24.732;2023-04-23T03:08:31;99353.91;;;12.31;100.00
8416;BME280;4245;42.120;24.732;2023-04-23T03:10:58;99366.50;;;12.29;100.00
8416;BME280;4245;42.120;24.732;2023-04-23T03:13:24;99362.47;;;12.23;100.00
8416;BME280;4245;42.120;24.732;2023-04-23T03:15:52;99360.31;;;12.28;100.00
8416;BME280;4245;42.120;24.732;2023-04-23T03:18:19;99366.72;;;12.26;100.00
8416;BME280;4245;42.120;24.732;2023-04-23T03:20:46;99366.84;;;12.24;100.00
8416;BME280;4245;42.120;24.732;2023-04-23T03:23:14;99373.63;;;12.28;100.00
8416;BME280;4245;42.120;24.732;2023-04-23T03:25:41;99379.06;;;12.27;100.00
8416;BME280;4245;42.120;24.732;2023-04-23T03:28:08;99380.03;;;12.26;100.00
8416;BME280;4245;42.120;24.732;2023-04-23T03:30:35;99385.09;;;12.17;100.00
8416;BME280;4245;42.120;24.732;2023-04-23T03:33:02;99382.06;;;12.22;100.00
8416;BME280;4245;42.120;24.732;2023-04-23T03:35:29;99382.31;;;12.19;100.00
8416;BME280;4245;42.120;24.732;2023-04-23T03:37:56;99387.25;;;12.12;100.00
8416;BME280;4245;42.120;24.732;2023-04-23T03:40:24;99387.00;;;12.15;100.00
8416;BME280;4245;42.120;24.732;2023-04-23T03:42:51;99385.44;;;12.13;100.00
8416;BME280;4245;42.120;24.732;2023-04-23T03:45:17;99387.75;;;12.17;100.00
8416;BME280;4245;42.120;24.732;2023-04-23T03:47:44;99391.03;;;12.21;100.00
8416;BME280;4245;42.120;24.732;2023-04-23T03:50:11;99388.88;;;12.26;100.00
8416;BME280;4245;42.120;24.732;2023-04-23T03:52:38;99397.16;;;12.34;100.00
8416;BME280;4245;42.120;24.732;2023-04-23T03:55:06;99396.25;;;12.23;100.00
8416;BME280;4245;42.120;24.732;2023-04-23T03:57:35;99390.41;;;12.17;100.00
8416;BME280;4245;42.120;24.732;2023-04-23T04:00:03;99400.09;;;12.18;100.00
8416;BME280;4245;42.120;24.732;2023-04-23T04:02:32;99405.47;;;12.30;100.00
8416;BME280;4245;42.120;24.732;2023-04-23T04:04:58;99407.31;;;12.29;100.00
8416;BME280;4245;42.120;24.732;2023-04-23T04:07:25;99409.13;;;12.40;100.00
8416;BME280;4245;42.120;24.732;2023-04-23T04:09:52;99414.59;;;12.38;100.00
8416;BME280;4245;42.120;24.732;2023-04-23T04:12:19;99416.66;;;12.46;100.00
8416;BME280;4245;42.120;24.732;2023-04-23T04:14:47;99417.63;;;12.45;100.00
8416;BME280;4245;42.120;24.732;2023-04-23T04:17:14;99415.34;;;12.51;100.00
8416;BME280;4245;42.120;24.732;2023-04-23T04:19:41;99421.53;;;12.52;100.00
8416;BME280;4245;42.120;24.732;2023-04-23T04:22:08;99425.09;;;12.75;100.00
8416;BME280;4245;42.120;24.732;2023-04-23T04:24:35;99431.31;;;12.86;100.00
8416;BME280;4245;42.120;24.732;2023-04-23T04:27:02;99429.16;;;12.91;100.00
8416;BME280;4245;42.120;24.732;2023-04-23T04:29:29;99438.38;;;12.98;100.00
8416;BME280;4245;42.120;24.732;2023-04-23T04:31:58;99439.03;;;13.13;100.00
8416;BME280;4245;42.120;24.732;2023-04-23T04:34:25;99433.69;;;13.13;100.00
8416;BME280;4245;42.120;24.732;2023-04-23T04:36:52;99435.78;;;13.21;100.00
8416;BME280;4245;42.120;24.732;2023-04-23T04:39:19;99441.97;;;13.21;100.00
8416;BME280;4245;42.120;24.732;2023-04-23T04:41:46;99443.69;;;12.98;100.00
8416;BME280;4245;42.120;24.732;2023-04-23T04:44:13;99444.63;;;13.21;100.00
8416;BME280;4245;42.120;24.732;2023-04-23T04:46:41;99446.94;;;13.48;100.00
8416;BME280;4245;42.120;24.732;2023-04-23T04:49:09;99456.97;;;13.67;100.00
8416;BME280;4245;42.120;24.732;2023-04-23T04:51:37;99464.75;;;13.47;100.00
8416;BME280;4245;42.120;24.732;2023-04-23T04:54:05;99464.25;;;13.20;100.00
8416;BME280;4245;42.120;24.732;2023-04-23T04:56:32;99460.03;;;13.29;100.00
8416;BME280;4245;42.120;24.732;2023-04-23T04:58:59;99469.38;;;13.34;100.00
8416;BME280;4245;42.120;24.732;2023-04-23T05:01:26;99470.34;;;13.44;100.00
8416;BME280;4245;42.120;24.732;2023-04-23T05:03:53;99473.84;;;13.56;100.00
8416;BME280;4245;42.120;24.732;2023-04-23T05:06:22;99473.84;;;13.67;100.00
8416;BME280;4245;42.120;24.732;2023-04-23T05:08:49;99474.94;;;13.76;100.00
8416;BME280;4245;42.120;24.732;2023-04-23T05:11:16;99482.09;;;13.75;100.00
8416;BME280;4245;42.120;24.732;2023-04-23T05:13:44;99478.94;;;13.81;99.65
8416;BME280;4245;42.120;24.732;2023-04-23T05:16:11;99481.97;;;13.88;98.28
8416;BME280;4245;42.120;24.732;2023-04-23T05:18:38;99484.03;;;13.62;100.00
8416;BME280;4245;42.120;24.732;2023-04-23T05:21:05;99482.22;;;13.52;100.00
8416;BME280;4245;42.120;24.732;2023-04-23T05:23:33;99486.94;;;13.70;100.00
8416;BME280;4245;42.120;24.732;2023-04-23T05:26:01;99470.53;;;14.08;98.51
8416;BME280;4245;42.120;24.732;2023-04-23T05:28:29;99482.50;;;14.36;95.83
8416;BME280;4245;42.120;24.732;2023-04-23T05:30:56;99489.97;;;14.53;95.29
8416;BME280;4245;42.120;24.732;2023-04-23T05:33:24;99487.44;;;14.72;94.55
8416;BME280;4245;42.120;24.732;2023-04-23T05:35:51;99481.59;;;14.99;92.79
8416;BME280;4245;42.120;24.732;2023-04-23T05:38:19;99485.72;;;15.24;89.61
8416;BME280;4245;42.120;24.732;2023-04-23T05:40:47;99489.16;;;15.36;88.35
8416;BME280;4245;42.120;24.732;2023-04-23T05:43:14;99489.66;;;15.50;86.94
8416;BME280;4245;42.120;24.732;2023-04-23T05:45:42;99501.16;;;15.41;87.08
8416;BME280;4245;42.120;24.732;2023-04-23T05:48:08;99485.78;;;15.64;87.06
8416;BME280;4245;42.120;24.732;2023-04-23T05:50:35;99494.50;;;15.87;84.42
8416;BME280;4245;42.120;24.732;2023-04-23T05:53:02;99499.84;;;15.87;84.99
8416;BME280;4245;42.120;24.732;2023-04-23T05:55:29;99500.28;;;15.92;86.05
8416;BME280;4245;42.120;24.732;2023-04-23T05:57:57;99504.56;;;16.04;84.44
8416;BME280;4245;42.120;24.732;2023-04-23T06:00:24;99500.06;;;16.14;81.71
8416;BME280;4245;42.120;24.732;2023-04-23T06:02:52;99502.59;;;16.06;81.23
8416;BME280;4245;42.120;24.732;2023-04-23T06:05:19;99503.84;;;16.02;79.83
8416;BME280;4245;42.120;24.732;2023-04-23T06:07:46;99507.28;;;15.83;81.12
8416;BME280;4245;42.120;24.732;2023-04-23T06:10:13;99508.66;;;15.68;81.75
8416;BME280;4245;42.120;24.732;2023-04-23T06:12:39;99507.09;;;15.65;84.17
8416;BME280;4245;42.120;24.732;2023-04-23T06:15:09;99510.59;;;15.45;85.59
8416;BME280;4245;42.120;24.732;2023-04-23T06:17:36;99504.44;;;15.75;86.31
8416;BME280;4245;42.120;24.732;2023-04-23T06:20:04;99496.09;;;16.08;91.55
8416;BME280;4245;42.120;24.732;2023-04-23T06:22:33;99509.31;;;16.40;87.81
8416;BME280;4245;42.120;24.732;2023-04-23T06:25:00;99511.75;;;16.63;79.24
8416;BME280;4245;42.120;24.732;2023-04-23T06:27:27;99511.81;;;16.32;80.87
8416;BME280;4245;42.120;24.732;2023-04-23T06:29:53;99502.72;;;16.04;85.16
8416;BME280;4245;42.120;24.732;2023-04-23T06:32:22;99507.69;;;15.79;86.45
8416;BME280;4245;42.120;24.732;2023-04-23T06:34:48;99504.69;;;16.02;86.02
8416;BME280;4245;42.120;24.732;2023-04-23T06:37:15;99497.84;;;15.79;90.24
8416;BME280;4245;42.120;24.732;2023-04-23T06:39:42;99510.22;;;16.11;88.71
8416;BME280;4245;42.120;24.732;2023-04-23T06:42:09;99506.47;;;16.51;88.46
8416;BME280;4245;42.120;24.732;2023-04-23T06:47:11;99517.13;;;16.91;79.89
8416;BME280;4245;42.120;24.732;2023-04-23T06:49:40;99509.91;;;16.92;83.28
8416;BME280;4245;42.120;24.732;2023-04-23T06:52:07;99516.13;;;17.02;79.65
8416;BME280;4245;42.120;24.732;2023-04-23T06:54:33;99512.00;;;16.50;81.83
8416;BME280;4245;42.120;24.732;2023-04-23T06:57:00;99503.84;;;16.80;81.01
8416;BME280;4245;42.120;24.732;2023-04-23T06:59:27;99506.94;;;16.76;83.19
8416;BME280;4245;42.120;24.732;2023-04-23T07:01:54;99514.97;;;17.05;81.72
8416;BME280;4245;42.120;24.732;2023-04-23T07:04:20;99509.59;;;17.24;78.28
8416;BME280;4245;42.120;24.732;2023-04-23T07:06:49;99514.47;;;17.67;77.33
8416;BME280;4245;42.120;24.732;2023-04-23T07:09:15;99516.09;;;18.14;75.19
8416;BME280;4245;42.120;24.732;2023-04-23T07:11:42;99513.84;;;18.82;70.55
8416;BME280;4245;42.120;24.732;2023-04-23T07:14:09;99517.75;;;19.49;67.81
8416;BME280;4245;42.120;24.732;2023-04-23T07:16:36;99510.38;;;19.85;65.61
8416;BME280;4245;42.120;24.732;2023-04-23T07:19:03;99514.09;;;19.15;67.87
8416;BME280;4245;42.120;24.732;2023-04-23T07:21:29;99512.03;;;19.08;68.67
8416;BME280;4245;42.120;24.732;2023-04-23T07:23:58;99508.81;;;18.70;69.74
8416;BME280;4245;42.120;24.732;2023-04-23T07:26:31;99511.75;;;18.76;81.31
8416;BME280;4245;42.120;24.732;2023-04-23T07:28:57;99502.53;;;18.96;83.19
8416;BME280;4245;42.120;24.732;2023-04-23T07:31:24;99508.88;;;19.57;70.47
8416;BME280;4245;42.120;24.732;2023-04-23T07:33:51;99507.81;;;19.32;67.89
8416;BME280;4245;42.120;24.732;2023-04-23T07:36:18;99505.56;;;19.19;76.34
8416;BME280;4245;42.120;24.732;2023-04-23T07:38:45;99507.81;;;19.06;68.54
8416;BME280;4245;42.120;24.732;2023-04-23T07:41:13;99495.22;;;18.26;79.58
8416;BME280;4245;42.120;24.732;2023-04-23T07:43:40;99495.34;;;19.48;72.73
8416;BME280;4245;42.120;24.732;2023-04-23T07:46:06;99494.59;;;20.32;72.11
8416;BME280;4245;42.120;24.732;2023-04-23T07:48:33;99499.75;;;21.08;62.51
8416;BME280;4245;42.120;24.732;2023-04-23T07:51:01;99501.13;;;21.36;61.49
8416;BME280;4245;42.120;24.732;2023-04-23T07:53:28;99497.56;;;21.11;58.00
8416;BME280;4245;42.120;24.732;2023-04-23T07:55:55;99495.31;;;20.58;62.32
8416;BME280;4245;42.120;24.732;2023-04-23T07:58:23;99496.88;;;21.01;62.97
8416;BME280;4245;42.120;24.732;2023-04-23T08:00:50;99489.31;;;20.80;60.58
8416;BME280;4245;42.120;24.732;2023-04-23T08:03:17;99489.59;;;21.50;65.18
8416;BME280;4245;42.120;24.732;2023-04-23T08:05:44;99498.50;;;21.83;56.23
8416;BME280;4245;42.120;24.732;2023-04-23T08:08:11;99491.34;;;21.98;60.93
8416;BME280;4245;42.120;24.732;2023-04-23T08:10:39;99487.16;;;21.80;57.17
8416;BME280;4245;42.120;24.732;2023-04-23T08:13:06;99486.47;;;22.33;59.81
8416;BME280;4245;42.120;24.732;2023-04-23T08:15:34;99492.81;;;23.02;51.30
8416;BME280;4245;42.120;24.732;2023-04-23T08:18:01;99481.66;;;22.96;53.62
8416;BME280;4245;42.120;24.732;2023-04-23T08:20:28;99476.16;;;23.05;51.99
8416;BME280;4245;42.120;24.732;2023-04-23T08:22:56;99479.31;;;22.71;51.36
8416;BME280;4245;42.120;24.732;2023-04-23T08:25:23;99468.59;;;22.24;55.08
8416;BME280;4245;42.120;24.732;2023-04-23T08:27:50;99473.16;;;23.00;50.44
8416;BME280;4245;42.120;24.732;2023-04-23T08:30:16;99481.09;;;23.38;51.25
8416;BME280;4245;42.120;24.732;2023-04-23T08:32:48;99476.53;;;23.91;46.81
8416;BME280;4245;42.120;24.732;2023-04-23T08:35:15;99466.75;;;24.11;49.48
8416;BME280;4245;42.120;24.732;2023-04-23T08:37:42;99473.66;;;24.64;46.49
8416;BME280;4245;42.120;24.732;2023-04-23T08:40:09;99475.28;;;24.80;49.64
8416;BME280;4245;42.120;24.732;2023-04-23T08:42:38;99471.50;;;24.96;48.04
8416;BME280;4245;42.120;24.732;2023-04-23T08:45:08;99474.94;;;25.32;42.35
8416;BME280;4245;42.120;24.732;2023-04-23T08:47:36;99470.41;;;24.90;42.74
8416;BME280;4245;42.120;24.732;2023-04-23T08:50:09;99466.41;;;25.35;41.82
8416;BME280;4245;42.120;24.732;2023-04-23T08:52:39;99471.06;;;25.41;39.65
8416;BME280;4245;42.120;24.732;2023-04-23T08:55:08;99467.66;;;24.48;42.67
8416;BME280;4245;42.120;24.732;2023-04-23T08:57:37;99461.31;;;24.26;42.94
8416;BME280;4245;42.120;24.732;2023-04-23T09:00:05;99459.13;;;24.72;44.29
8416;BME280;4245;42.120;24.732;2023-04-23T09:02:35;99459.09;;;25.64;41.93
8416;BME280;4245;42.120;24.732;2023-04-23T09:05:02;99460.72;;;26.27;41.70
8416;BME280;4245;42.120;24.732;2023-04-23T09:07:32;99451.81;;;26.79;40.93
8416;BME280;4245;42.120;24.732;2023-04-23T09:09:59;99452.09;;;27.10;39.81
8416;BME280;4245;42.120;24.732;2023-04-23T09:12:26;99457.16;;;27.20;37.02
8416;BME280;4245;42.120;24.732;2023-04-23T09:14:53;99445.88;;;26.36;40.27
8416;BME280;4245;42.120;24.732;2023-04-23T09:17:21;99454.25;;;25.93;41.54
8416;BME280;4245;42.120;24.732;2023-04-23T09:19:49;99449.25;;;25.35;39.57
8416;BME280;4245;42.120;24.732;2023-04-23T09:22:37;99445.47;;;24.44;44.68
8416;BME280;4245;42.120;24.732;2023-04-23T09:25:05;99439.81;;;24.46;44.17
8416;BME280;4245;42.120;24.732;2023-04-23T09:27:33;99444.16;;;25.25;41.27
8416;BME280;4245;42.120;24.732;2023-04-23T09:30:01;99439.88;;;25.65;43.54
8416;BME280;4245;42.120;24.732;2023-04-23T09:32:33;99451.47;;;25.87;38.20
8416;BME280;4245;42.120;24.732;2023-04-23T09:35:03;99440.69;;;26.61;34.34
8416;BME280;4245;42.120;24.732;2023-04-23T09:37:31;99444.97;;;26.96;32.98
8416;BME280;4245;42.120;24.732;2023-04-23T09:40:00;99433.53;;;26.53;34.63
8416;BME280;4245;42.120;24.732;2023-04-23T09:42:29;99434.00;;;26.76;32.94
8416;BME280;4245;42.120;24.732;2023-04-23T09:44:56;99435.31;;;27.20;31.96
8416;BME280;4245;42.120;24.732;2023-04-23T09:47:24;99425.22;;;27.34;30.87
8416;BME280;4245;42.120;24.732;2023-04-23T09:49:52;99429.22;;;27.44;31.23
8416;BME280;4245;42.120;24.732;2023-04-23T09:52:19;99428.16;;;27.58;31.00
8416;BME280;4245;42.120;24.732;2023-04-23T09:54:47;99426.25;;;27.65;30.89
8416;BME280;4245;42.120;24.732;2023-04-23T09:57:15;99430.59;;;27.86;30.24
8416;BME280;4245;42.120;24.732;2023-04-23T09:59:42;99424.19;;;27.28;31.46
8416;BME280;4245;42.120;24.732;2023-04-23T10:02:10;99425.25;;;27.20;32.56
8416;BME280;4245;42.120;24.732;2023-04-23T10:04:37;99415.16;;;27.34;31.29
8416;BME280;4245;42.120;24.732;2023-04-23T10:07:06;99409.66;;;27.74;30.55
8416;BME280;4245;42.120;24.732;2023-04-23T10:09:39;99403.75;;;27.70;30.38
8416;BME280;4245;42.120;24.732;2023-04-23T10:12:07;99412.84;;;27.64;30.56
8416;BME280;4245;42.120;24.732;2023-04-23T10:14:37;99409.91;;;26.67;30.55
8416;BME280;4245;42.120;24.732;2023-04-23T10:17:04;99413.28;;;26.15;31.83
8416;BME280;4245;42.120;24.732;2023-04-23T10:19:32;99403.75;;;26.45;31.47
8416;BME280;4245;42.120;24.732;2023-04-23T10:22:01;99398.63;;;26.96;32.69
8416;BME280;4245;42.120;24.732;2023-04-23T10:24:32;99392.50;;;28.04;29.93
8416;BME280;4245;42.120;24.732;2023-04-23T10:27:00;99394.50;;;28.29;29.34
8416;BME280;4245;42.120;24.732;2023-04-23T10:29:29;99391.94;;;28.72;29.83
8416;BME280;4245;42.120;24.732;2023-04-23T10:31:59;99384.63;;;29.40;28.38
8416;BME280;4245;42.120;24.732;2023-04-23T10:34:27;99384.25;;;29.36;28.46
8416;BME280;4245;42.120;24.732;2023-04-23T10:36:54;99386.53;;;29.15;27.83
8416;BME280;4245;42.120;24.732;2023-04-23T10:39:25;99368.84;;;27.92;29.69
8416;BME280;4245;42.120;24.732;2023-04-23T10:41:53;99375.38;;;28.29;28.80
8416;BME280;4245;42.120;24.732;2023-04-23T10:44:20;99373.25;;;27.86;28.98
8416;BME280;4245;42.120;24.732;2023-04-23T10:46:52;99370.25;;;26.77;30.00
8416;BME280;4245;42.120;24.732;2023-04-23T10:49:23;99362.25;;;27.55;29.42
8416;BME280;4245;42.120;24.732;2023-04-23T10:51:58;99361.78;;;27.64;28.90
8416;BME280;4245;42.120;24.732;2023-04-23T10:54:28;99359.25;;;28.21;29.53
8416;BME280;4245;42.120;24.732;2023-04-23T10:56:57;99356.84;;;29.18;28.22
8416;BME280;4245;42.120;24.732;2023-04-23T10:59:26;99350.19;;;29.87;26.98
8416;BME280;4245;42.120;24.732;2023-04-23T11:01:55;99349.00;;;30.01;26.38
8416;BME280;4245;42.120;24.732;2023-04-23T11:04:24;99345.03;;;29.79;27.29
8416;BME280;4245;42.120;24.732;2023-04-23T11:06:54;99342.59;;;29.71;26.83
8416;BME280;4245;42.120;24.732;2023-04-23T11:09:35;99342.63;;;29.53;26.94
8416;BME280;4245;42.120;24.732;2023-04-23T11:12:06;99342.03;;;28.83;27.61
8416;BME280;4245;42.120;24.732;2023-04-23T11:14:35;99337.44;;;29.20;27.38
8416;BME280;4245;42.120;24.732;2023-04-23T11:17:02;99334.03;;;29.67;26.43
8416;BME280;4245;42.120;24.732;2023-04-23T11:19:34;99322.19;;;29.85;26.15
8416;BME280;4245;42.120;24.732;2023-04-23T11:22:03;99325.34;;;29.52;27.80
8416;BME280;4245;42.120;24.732;2023-04-23T11:24:32;99330.69;;;30.13;26.52
8416;BME280;4245;42.120;24.732;2023-04-23T11:27:04;99324.44;;;30.89;25.41
8416;BME280;4245;42.120;24.732;2023-04-23T11:29:31;99329.31;;;30.76;25.31
8416;BME280;4245;42.120;24.732;2023-04-23T11:31:58;99327.41;;;29.39;26.31
8416;BME280;4245;42.120;24.732;2023-04-23T11:34:25;99327.19;;;28.03;27.59
8416;BME280;4245;42.120;24.732;2023-04-23T11:36:53;99318.09;;;26.94;28.37
8416;BME280;4245;42.120;24.732;2023-04-23T11:39:21;99309.47;;;26.97;28.75
8416;BME280;4245;42.120;24.732;2023-04-23T11:41:50;99311.69;;;27.39;28.60
8416;BME280;4245;42.120;24.732;2023-04-23T11:44:26;99309.34;;;27.56;28.48
8416;BME280;4245;42.120;24.732;2023-04-23T11:46:53;99318.28;;;26.86;27.41
8416;BME280;4245;42.120;24.732;2023-04-23T11:49:20;99309.63;;;27.35;28.07
8416;BME280;4245;42.120;24.732;2023-04-23T11:51:47;99311.81;;;28.46;26.10
8416;BME280;4245;42.120;24.732;2023-04-23T11:54:15;99296.09;;;27.59;26.58
8416;BME280;4245;42.120;24.732;2023-04-23T11:56:43;99293.44;;;27.40;26.46
8416;BME280;4245;42.120;24.732;2023-04-23T11:59:10;99295.28;;;27.46;27.07
8416;BME280;4245;42.120;24.732;2023-04-23T12:01:40;99285.56;;;28.07;26.99
8416;BME280;4245;42.120;24.732;2023-04-23T12:04:12;99284.81;;;28.81;25.95
8416;BME280;4245;42.120;24.732;2023-04-23T12:06:40;99281.78;;;29.14;25.77
8416;BME280;4245;42.120;24.732;2023-04-23T12:09:08;99275.84;;;29.54;25.36
8416;BME280;4245;42.120;24.732;2023-04-23T12:11:37;99282.56;;;28.97;24.81
8416;BME280;4245;42.120;24.732;2023-04-23T12:14:05;99288.84;;;29.40;25.15
8416;BME280;4245;42.120;24.732;2023-04-23T12:16:37;99277.56;;;29.30;24.17
8416;BME280;4245;42.120;24.732;2023-04-23T12:19:07;99274.41;;;28.09;25.70
8416;BME280;4245;42.120;24.732;2023-04-23T12:21:34;99266.97;;;28.79;24.68
8416;BME280;4245;42.120;24.732;2023-04-23T12:24:02;99259.47;;;28.68;25.85
8416;BME280;4245;42.120;24.732;2023-04-23T12:26:30;99257.88;;;29.21;24.67
8416;BME280;4245;42.120;24.732;2023-04-23T12:28:59;99253.75;;;29.37;24.97
8416;BME280;4245;42.120;24.732;2023-04-23T12:31:26;99250.75;;;29.02;24.61
8416;BME280;4245;42.120;24.732;2023-04-23T12:33:57;99249.91;;;29.02;24.62
8416;BME280;4245;42.120;24.732;2023-04-23T12:36:27;99243.72;;;29.31;24.59
8416;BME280;4245;42.120;24.732;2023-04-23T12:39:24;99238.97;;;29.86;24.08
8416;BME280;4245;42.120;24.732;2023-04-23T12:41:52;99237.84;;;30.47;23.74
8416;BME280;4245;42.120;24.732;2023-04-23T12:44:20;99238.94;;;30.92;23.06
8416;BME280;4245;42.120;24.732;2023-04-23T12:46:54;99238.09;;;31.15;22.01
8416;BME280;4245;42.120;24.732;2023-04-23T12:49:21;99230.69;;;30.46;22.63
8416;BME280;4245;42.120;24.732;2023-04-23T12:51:48;99230.69;;;30.46;23.15
8416;BME280;4245;42.120;24.732;2023-04-23T12:54:17;99229.50;;;30.65;22.64
8416;BME280;4245;42.120;24.732;2023-04-23T12:56:43;99230.38;;;30.54;22.67
8416;BME280;4245;42.120;24.732;2023-04-23T12:59:10;99228.19;;;30.44;22.12
8416;BME280;4245;42.120;24.732;2023-04-23T13:01:38;99226.66;;;29.95;22.10
8416;BME280;4245;42.120;24.732;2023-04-23T13:04:06;99222.69;;;29.25;22.99
8416;BME280;4245;42.120;24.732;2023-04-23T13:06:32;99218.69;;;29.27;23.63
8416;BME280;4245;42.120;24.732;2023-04-23T13:08:59;99214.19;;;29.81;23.51
8416;BME280;4245;42.120;24.732;2023-04-23T13:11:27;99217.84;;;30.58;22.93
8416;BME280;4245;42.120;24.732;2023-04-23T13:13:54;99222.09;;;30.89;21.90